• Join FlightAware (Why Join?)
  • Login
  • US Flag 
11:48AM EDT


 

Airport Tracker/Info


-or-


 

Live Flight TrackerFlight Track Log ✈ UAL139 ✈ 01-Jul-2013 ✈ KDEN - RJAA / NRT

Flight Track Log - Related Links

Times and Time Zones

All times are in EDT time to prevent confusion due to time zone crossing. See the UAL139 flight status page for this flight to view local times or setup timezone preferences in your user account.

Time Position Orientation Groundspeed Altitude Reporting Facility
EDT Latitude Longitude Course Direction KTS MPH feet Rate Location/Type
02:33PM 39.8560 -104.6760 222° Southwest 26 30  Level FlightAware
02:34PM 39.8560 -104.6770 270° West 29 33 480 Level FlightAware
02:34PM 39.8560 -104.6780 270° West 31 36 540 Level FlightAware
02:34PM 39.8560 -104.6790 270° West 31 36 540 Level FlightAware
02:40PM 39.8839 -105.0068 276° West  Level FlightAware Approximate
02:41PM 39.8962 -105.1664 276° West  Level FlightAware Approximate
02:42PM 39.9036 -105.3264 276° West  Level FlightAware Approximate
02:43PM 39.9167 -105.4859 270° West  Level FlightAware Approximate
02:44PM 39.9333 -105.6445 270° West  Level FlightAware Approximate
02:45PM 39.8410 -104.7490 271° West 201 231 6,000  Level FlightAware ADS-B
02:45PM 39.8407 -104.7680 269° West 215 247 6,300 1,260 Climbing FlightAware ADS-B
02:45PM 39.8402 -104.7920 268° West 237 273 6,700 1,260 Climbing FlightAware ADS-B
02:46PM 39.8400 -104.8230 270° West 262 302 7,100 1,260 Climbing FlightAware ADS-B
02:46PM 39.8394 -104.8570 269° West 283 326 7,600 1,920 Climbing FlightAware ADS-B
02:46PM 39.8389 -104.8860 269° West 290 334 8,300 2,760 Climbing FlightAware ADS-B
02:46PM 39.8386 -104.9130 269° West 289 333 9,100 2,460 Climbing FlightAware ADS-B
02:47PM 39.8360 -104.9770 267° West 297 342 10,500 2,220 Climbing FlightAware
02:47PM 39.8345 -105.0020 266° West 299 344 11,000 2,640 Climbing FlightAware ADS-B
02:48PM 39.8318 -105.0580 266° West 300 345 12,500 2,700 Climbing FlightAware ADS-B
02:48PM 39.8312 -105.1160 269° West 309 356 13,800 2,460 Climbing FlightAware ADS-B
02:49PM 39.8239 -105.2050 264° West 316 364 15,800 2,400 Climbing FlightAware ADS-B
02:50PM 39.8183 -105.2640 263° West 324 373 17,000 2,220 Climbing FlightAware ADS-B
02:50PM 39.8128 -105.3230 263° West 332 382 18,100 2,100 Climbing FlightAware ADS-B
02:51PM 39.8073 -105.3840 263° West 337 388 19,100 2,220 Climbing FlightAware ADS-B
02:51PM 39.8041 -105.4370 266° West 338 389 20,200 2,100 Climbing FlightAware ADS-B
02:52PM 39.8050 -105.5010 271° West 349 402 21,100 1,440 Climbing FlightAware ADS-B
02:52PM 39.8019 -105.5900 267° West 362 417 22,000 1,200 Climbing FlightAware ADS-B
02:53PM 39.7985 -105.6930 268° West 380 437 22,900 1,080 Climbing FlightAware ADS-B
02:53PM 39.8005 -105.7120 278° West 385 443 23,000 900 Climbing FlightAware ADS-B
02:54PM 39.8247 -105.8080 288° West 398 458 23,700 1,200 Climbing FlightAware ADS-B
02:55PM 39.8720 -105.9210 299° West 409 471 25,000 1,560 Climbing FlightAware
02:55PM 39.8916 -105.9650 300° West 404 465 25,600 1,740 Climbing FlightAware ADS-B
02:56PM 39.9618 -106.1050 303° West 412 474 27,600 1,560 Climbing FlightAware ADS-B
02:57PM 40.0070 -106.1940 304° West 423 487 28,500 1,260 Climbing FlightAware
02:57PM 40.0264 -106.2330 303° West 426 490 28,900 1,380 Climbing FlightAware ADS-B
02:58PM 40.0612 -106.3040 303° West 431 496 29,700 1,320 Climbing FlightAware ADS-B
02:59PM 40.1296 -106.4430 303° West 432 497 31,100 1,260 Climbing FlightAware ADS-B
02:59PM 40.1647 -106.5150 303° West 444 511 31,700 1,020 Climbing FlightAware ADS-B
03:01PM 40.2490 -106.6890 302° West 453 521 33,400 780 Climbing FlightAware
03:02PM 40.3080 -106.8120 302° West 458 527 33,500 540 Climbing FlightAware
03:03PM 40.3860 -106.9730 302° West 465 535 34,400 480 Climbing FlightAware
03:03PM 40.4220 -107.0500 302° West 465 535 34,400 1,500 Level FlightAware
03:04PM 40.4810 -107.1720 302° West 462 532 36,400 2,040 Climbing FlightAware
03:05PM 40.5350 -107.2840 302° West 455 524 37,300 1,020 Climbing FlightAware
03:06PM 40.5780 -107.3760 302° West 450 518 37,900 480 Climbing FlightAware
03:06PM 40.6220 -107.4700 302° West 453 521 38,000 60 Climbing FlightAware
03:07PM 40.6690 -107.5690 302° West 454 522 38,000  Level FlightAware
03:08PM 40.7210 -107.6790 302° West 454 522 38,000  Level FlightAware
03:08PM 40.7710 -107.7850 302° West 455 524 38,000  Level FlightAware
03:09PM 40.8250 -107.9010 302° West 457 526 38,000  Level FlightAware
03:10PM 40.8730 -108.0050 301° West 458 527 38,000  Level FlightAware
03:11PM 40.9110 -108.0870 302° West 456 525 38,000  Level FlightAware
03:12PM 40.9690 -108.2150 301° West 457 526 38,000  Level FlightAware
03:12PM 41.0140 -108.3130 301° West 457 526 38,000  Level FlightAware
03:13PM 41.0490 -108.3900 301° West 457 526 38,000  Level FlightAware
03:14PM 41.0820 -108.4640 301° West 457 526 38,000  Level FlightAware
03:14PM 41.1170 -108.5400 301° West 457 526 38,000  Level FlightAware
03:15PM 41.1620 -108.6400 301° West 457 526 38,000  Level FlightAware
03:16PM 41.1950 -108.7140 301° West 457 526 38,000  Level FlightAware
03:16PM 41.2290 -108.7870 302° West 457 526 38,000  Level FlightAware
03:17PM 41.2710 -108.8820 300° West 457 526 38,000  Level FlightAware
03:18PM 41.3250 -109.0010 301° West 457 526 38,000  Level FlightAware
03:19PM 41.3600 -109.0790 301° West 457 526 38,000  Level FlightAware
03:19PM 41.4040 -109.1770 301° West 457 526 38,000  Level FlightAware
03:20PM 41.4380 -109.2510 302° West 457 526 38,000  Level FlightAware
03:21PM 41.4820 -109.3500 301° West 457 526 38,000  Level FlightAware
03:23PM 41.6970 -109.8350 301° West 462 532 38,000  Level FlightAware
03:23PM 41.7400 -109.9340 300° West 462 532 38,000  Level FlightAware
03:24PM 41.8040 -110.0840 300° West 462 532 38,000  Level FlightAware
03:25PM 41.8380 -110.1620 300° West 462 532 38,000  Level FlightAware
03:26PM 41.8800 -110.2590 300° West 462 532 38,000  Level FlightAware
03:27PM 41.9140 -110.3400 299° West 462 532 38,000  Level FlightAware
03:28PM 41.9890 -110.5130 300° West 462 532 38,000  Level FlightAware
03:29PM 42.0230 -110.5930 300° West 462 532 38,000  Level FlightAware
03:29PM 42.1190 -110.8180 300° West 467 537 38,000  Level FlightAware
03:30PM 42.1670 -110.9310 300° West 465 535 38,000  Level FlightAware
03:30PM 42.2000 -111.0120 299° West 465 535 38,000  Level FlightAware
03:31PM 42.2462 -111.1200 300° West 466 536 38,000  Level FlightAware ADS-B
03:32PM 42.2780 -111.1960 300° West 466 536 38,000  Level FlightAware ADS-B
03:32PM 42.3098 -111.2720 300° West 465 535 38,000  Level FlightAware ADS-B
03:33PM 42.3542 -111.3790 299° West 465 535 38,000  Level FlightAware ADS-B
03:33PM 42.3932 -111.4740 299° West 466 536 38,000  Level FlightAware ADS-B
03:34PM 42.4318 -111.5670 299° West 467 537 38,000  Level FlightAware ADS-B
03:35PM 42.4897 -111.7080 299° West 469 540 38,000  Level FlightAware ADS-B
03:36PM 42.5502 -111.8560 299° West 471 542 38,000  Level FlightAware ADS-B
03:36PM 42.5823 -111.9350 299° West 473 544 38,000  Level FlightAware ADS-B
03:37PM 42.6142 -112.0140 299° West 473 544 38,000  Level FlightAware ADS-B
03:38PM 42.6994 -112.2240 299° West 473 544 38,000  Level FlightAware ADS-B
03:40PM 42.8340 -112.5620 299° West 470 541 38,000  Level FlightAware
03:41PM 42.8690 -112.6490 299° West 470 541 38,000  Level FlightAware
03:42PM 42.9230 -112.7880 298° West 470 541 38,000  Level FlightAware
03:43PM 42.9540 -112.8680 298° West 470 541 38,000  Level FlightAware
03:43PM 42.9870 -112.9530 298° West 470 541 38,000  Level FlightAware
03:44PM 43.0580 -113.0300 322° Northwest 469 540 38,000  Level FlightAware ADS-B
03:44PM 43.1045 -113.1240 304° West 470 541 38,000  Level FlightAware ADS-B
03:45PM 43.1609 -113.2390 304° West 469 540 38,000  Level FlightAware ADS-B
03:46PM 43.2447 -113.4072 304° West 469 540 38,000  Level Salt Lake Center
03:47PM 43.3119 -113.5506 303° West 467 537 38,000  Level Salt Lake Center
03:48PM 43.3925 -113.7144 304° West 466 536 38,000  Level Salt Lake Center
03:49PM 43.4611 -113.8558 304° West 463 533 38,000  Level Salt Lake Center
03:50PM 43.5275 -114.0222 299° West 469 540 38,000  Level Salt Lake Center
03:51PM 43.5828 -114.2067 293° West 466 536 38,000  Level Salt Lake Center
03:52PM 43.6333 -114.3647 294° West 471 542 38,000  Level Salt Lake Center
03:53PM 43.6867 -114.5206 295° West 468 539 38,000  Level Salt Lake Center
03:55PM 43.7694 -114.6864 305° West 470 541 38,000  Level Salt Lake Center
03:56PM 43.8386 -114.8308 304° West 470 541 38,000  Level Salt Lake Center
03:57PM 43.9200 -114.9986 304° West 470 541 38,000  Level Salt Lake Center
03:58PM 43.9892 -115.1433 304° West 470 541 38,000  Level Salt Lake Center
03:59PM 44.0708 -115.3122 304° West 470 541 38,000  Level Salt Lake Center
04:00PM 44.1394 -115.4561 304° West 467 537 38,000  Level Salt Lake Center
04:01PM 44.2197 -115.6244 304° West 465 535 38,000  Level Salt Lake Center
04:02PM 44.2875 -115.7669 304° West 462 532 38,000  Level Salt Lake Center
04:03PM 44.3661 -115.9358 303° West 463 533 38,000  Level Salt Lake Center
04:04PM 44.4261 -116.0636 303° West 467 537 38,000  Level Salt Lake Center
04:05PM 44.5092 -116.2467 303° West 475 547 38,000  Level Salt Lake Center
04:06PM 44.5764 -116.3931 303° West 471 542 38,000  Level Salt Lake Center
04:07PM 44.6553 -116.5644 303° West 468 539 38,000  Level Salt Lake Center
04:08PM 44.7119 -116.6883 303° West 471 542 38,000  Level Seattle Center
04:09PM 44.7789 -116.8361 303° West 469 540 38,000  Level Seattle Center
04:10PM 44.8469 -116.9844 303° West 471 542 38,000  Level Seattle Center
04:15PM 45.2380 -117.8660 303° West 465 535 38,000  Level FlightAware
04:16PM 45.2790 -117.9620 301° West 465 535 38,000  Level FlightAware
04:17PM 45.3290 -118.0740 302° West 463 533 38,000  Level FlightAware
04:17PM 45.3820 -118.1970 302° West 463 533 38,000  Level FlightAware
04:18PM 45.4270 -118.3020 301° West 463 533 38,000  Level FlightAware
04:19PM 45.4610 -118.3800 302° West 464 534 38,000  Level FlightAware
04:19PM 45.5120 -118.4990 301° West 465 535 38,000  Level FlightAware
04:20PM 45.5610 -118.6130 302° West 464 534 38,000  Level FlightAware
04:21PM 45.5980 -118.7020 301° West 466 536 38,000  Level FlightAware
04:21PM 45.6490 -118.8200 302° West 467 537 38,000  Level FlightAware
04:22PM 45.6960 -118.9300 301° West 469 540 38,000  Level FlightAware
04:23PM 45.7460 -119.0360 304° West 471 542 38,000  Level FlightAware
04:24PM 45.8120 -119.1630 307° West 474 545 38,000  Level FlightAware
04:24PM 45.8550 -119.2510 305° West 473 544 38,000  Level FlightAware
04:25PM 45.9160 -119.3720 306° West 475 547 38,000  Level FlightAware
04:26PM 45.9680 -119.4760 306° West 477 549 38,000  Level FlightAware
04:26PM 46.0230 -119.5880 305° West 476 548 38,000  Level FlightAware
04:27PM 46.0790 -119.7020 305° West 476 548 38,000  Level FlightAware
04:28PM 46.1190 -119.7840 305° West 474 545 38,000  Level FlightAware
04:28PM 46.1760 -119.8990 306° West 475 547 38,000  Level FlightAware
04:29PM 46.2310 -120.0120 305° West 472 543 38,000  Level FlightAware
04:30PM 46.2740 -120.1000 305° West 471 542 38,000  Level FlightAware
04:30PM 46.2959 -120.1460 305° West 472 543 38,000  Level FlightAware ADS-B
04:30PM 46.3359 -120.2280 305° West 472 543 38,000  Level FlightAware ADS-B
04:31PM 46.3742 -120.3080 305° West 472 543 38,000  Level FlightAware ADS-B
04:31PM 46.4128 -120.3880 305° West 472 543 38,000  Level FlightAware ADS-B
04:32PM 46.4503 -120.4660 305° West 474 545 38,000  Level FlightAware ADS-B
04:33PM 46.5142 -120.6000 305° West 476 548 38,000  Level FlightAware ADS-B
04:33PM 46.5522 -120.6800 305° West 476 548 38,000  Level FlightAware ADS-B
04:34PM 46.5930 -120.7660 305° West 475 547 38,000  Level FlightAware ADS-B
04:34PM 46.6305 -120.8450 305° West 475 547 38,000  Level FlightAware ADS-B
04:35PM 46.6682 -120.9250 304° West 475 547 38,000  Level FlightAware ADS-B
04:35PM 46.7058 -121.0050 304° West 474 545 38,000  Level FlightAware ADS-B
04:36PM 46.7428 -121.0840 304° West 476 548 38,000  Level FlightAware ADS-B
04:36PM 46.7804 -121.1640 304° West 476 548 38,000  Level FlightAware ADS-B
04:37PM 46.8177 -121.2440 304° West 476 548 38,000  Level FlightAware ADS-B
04:37PM 46.8552 -121.3250 304° West 477 549 38,000  Level FlightAware ADS-B
04:38PM 46.8920 -121.4040 304° West 477 549 38,000  Level FlightAware ADS-B
04:38PM 46.9296 -121.4850 304° West 476 548 38,000  Level FlightAware ADS-B
04:39PM 46.9668 -121.5660 304° West 475 547 38,000  Level FlightAware ADS-B
04:39PM 47.0037 -121.6470 304° West 476 548 38,000  Level FlightAware ADS-B
04:40PM 47.0406 -121.7270 304° West 478 550 38,000  Level FlightAware ADS-B
04:40PM 47.0781 -121.8090 304° West 480 552 38,000  Level FlightAware ADS-B
04:41PM 47.1155 -121.8910 304° West 482 555 38,000  Level FlightAware ADS-B
04:41PM 47.1530 -121.9740 304° West 483 556 38,000  Level FlightAware ADS-B
04:42PM 47.1900 -122.0550 304° West 486 559 38,000  Level FlightAware ADS-B
04:42PM 47.2274 -122.1380 304° West 487 560 38,000  Level FlightAware ADS-B
04:43PM 47.2665 -122.2250 304° West 484 557 38,000  Level FlightAware ADS-B
04:43PM 47.3038 -122.3080 304° West 485 558 38,000  Level FlightAware ADS-B
04:44PM 47.3412 -122.3920 303° West 486 559 38,000  Level FlightAware ADS-B
04:45PM 47.3790 -122.4760 304° West 487 560 38,000  Level FlightAware ADS-B
04:45PM 47.4159 -122.5590 303° West 487 560 38,000  Level FlightAware ADS-B
04:46PM 47.4552 -122.6480 303° West 487 560 38,000  Level FlightAware ADS-B
04:46PM 47.4922 -122.7320 303° West 488 562 38,000  Level FlightAware ADS-B
04:47PM 47.5294 -122.8160 303° West 489 563 38,000  Level FlightAware ADS-B
04:47PM 47.5667 -122.9010 303° West 489 563 38,000  Level FlightAware ADS-B
04:48PM 47.6040 -122.9860 303° West 490 564 38,000  Level FlightAware ADS-B
04:48PM 47.6426 -123.0750 303° West 492 566 38,000  Level FlightAware ADS-B
04:49PM 47.6795 -123.1590 303° West 490 564 38,000  Level FlightAware ADS-B
04:49PM 47.7171 -123.2460 303° West 489 563 38,000  Level FlightAware ADS-B
04:50PM 47.7540 -123.3320 303° West 489 563 38,000  Level FlightAware ADS-B
04:50PM 47.7907 -123.4170 303° West 490 564 38,000  Level FlightAware ADS-B
04:51PM 47.8273 -123.5020 303° West 491 565 38,000  Level FlightAware ADS-B
04:51PM 47.8640 -123.5880 302° West 491 565 38,000  Level FlightAware ADS-B
04:52PM 47.9007 -123.6740 303° West 490 564 38,000  Level FlightAware ADS-B
04:52PM 47.9380 -123.7610 303° West 490 564 38,000  Level FlightAware ADS-B
04:53PM 47.9866 -123.8760 302° West 491 565 38,000  Level FlightAware ADS-B
04:53PM 48.0228 -123.9620 302° West 493 567 38,000  Level FlightAware ADS-B
04:54PM 48.0598 -124.0500 302° West 496 571 38,000  Level FlightAware ADS-B
04:54PM 48.0969 -124.1380 302° West 496 571 38,000  Level FlightAware ADS-B
04:55PM 48.1332 -124.2250 302° West 494 568 38,000  Level FlightAware ADS-B
04:55PM 48.1706 -124.3140 302° West 494 568 38,000  Level FlightAware ADS-B
04:56PM 48.2069 -124.4020 302° West 493 567 38,000  Level FlightAware ADS-B
04:56PM 48.2434 -124.4900 302° West 490 564 38,000  Level FlightAware ADS-B
04:57PM 48.2789 -124.5750 302° West 491 565 38,000  Level FlightAware ADS-B
04:58PM 48.3490 -124.6970 311° West 506 582 38,000  Level FlightAware
04:58PM 48.4264 -124.8070 317° Northwest 505 581 38,000  Level FlightAware ADS-B
04:59PM 48.4768 -124.8800 316° Northwest 504 580 38,000  Level FlightAware ADS-B
05:00PM 48.5600 -124.9990 317° Northwest 505 581 38,000  Level FlightAware
05:00PM 48.6330 -125.1050 316° Northwest 507 583 38,000  Level FlightAware
05:01PM 48.6990 -125.2010 316° Northwest 504 580 38,000  Level FlightAware
05:02PM 48.7640 -125.2940 317° Northwest 504 580 38,000  Level FlightAware
05:02PM 48.8230 -125.3810 316° Northwest 501 577 38,000  Level FlightAware
05:03PM 48.9000 -125.4940 316° Northwest 495 570 38,000  Level FlightAware
05:04PM 48.9590 -125.5810 316° Northwest 497 572 38,000  Level FlightAware
05:04PM 49.0260 -125.6810 316° Northwest 504 580 38,000  Level FlightAware
05:05PM 49.0960 -125.7850 316° Northwest 504 580 38,000  Level FlightAware
05:06PM 49.1680 -125.8910 316° Northwest 504 580 38,000  Level FlightAware
05:06PM 49.2340 -125.9910 315° West 504 580 38,000  Level FlightAware
05:07PM 49.3060 -126.0990 316° Northwest 508 585 38,000  Level FlightAware
05:08PM 49.3760 -126.2050 315° West 512 589 38,000  Level FlightAware
05:09PM 49.4490 -126.3140 316° Northwest 519 597 38,000  Level FlightAware
05:09PM 49.5170 -126.4180 315° West 519 597 38,000  Level FlightAware
05:10PM 49.5830 -126.5190 315° West 519 597 38,000  Level FlightAware
05:11PM 49.6510 -126.6230 315° West 517 595 38,000  Level FlightAware
05:11PM 49.7230 -126.7340 315° West 516 594 38,000  Level FlightAware
05:12PM 49.7830 -126.8280 315° West 516 594 38,000  Level FlightAware
05:13PM 49.8580 -126.9440 315° West 517 595 38,000  Level FlightAware
05:13PM 49.9340 -127.0630 315° West 519 597 38,000  Level FlightAware
05:14PM 50.0100 -127.1810 315° West 519 597 38,000  Level FlightAware
05:15PM 50.0690 -127.2750 314° West 513 590 38,000  Level FlightAware
05:15PM 50.1440 -127.3930 315° West 519 597 38,000  Level FlightAware
05:16PM 50.2370 -127.5410 315° West 513 590 38,000  Level FlightAware
05:18PM 50.3550 -127.7310 314° West 520 598 38,000  Level FlightAware
05:18PM 50.4160 -127.8290 314° West 520 598 38,000  Level FlightAware
05:19PM 50.4840 -127.9400 314° West 520 598 38,000  Level FlightAware
05:19PM 50.5350 -128.0230 314° West 520 598 38,000  Level FlightAware
05:20PM 50.5890 -128.1110 314° West 520 598 38,000  Level FlightAware
05:21PM 50.6410 -128.1940 315° West 520 598 38,000  Level FlightAware
05:22PM 50.7100 -128.3080 314° West 520 598 38,000  Level FlightAware
05:22PM 50.7630 -128.3940 314° West 520 598 38,000  Level FlightAware
05:23PM 50.8290 -128.5040 314° West 520 598 38,000  Level FlightAware
05:24PM 50.8820 -128.5900 314° West 520 598 38,000  Level FlightAware
05:24PM 50.9500 -128.7020 314° West 520 598 38,000  Level FlightAware
05:25PM 51.0000 -128.7840 314° West 520 598 38,000  Level FlightAware
05:26PM 51.0510 -128.8680 314° West 520 598 38,000  Level FlightAware
05:26PM 51.1190 -128.9800 314° West 520 598 38,000  Level FlightAware
05:27PM 51.1720 -129.0670 314° West 520 598 38,000  Level FlightAware
05:28PM 51.2240 -129.1540 314° West 520 598 38,000  Level FlightAware
05:28PM 51.2880 -129.2600 314° West 520 598 38,000  Level FlightAware
05:29PM 51.5167 -129.7000 314° West 520 598 38,000  Level Vancouver Center
05:30PM 51.6167 -129.8833 311° West 520 598 38,000  Level Vancouver Center
05:31PM 51.7167 -130.0500 314° West 520 598 38,000  Level Vancouver Center
05:32PM 51.8000 -130.2000 312° West 520 598 38,100 600 Climbing Vancouver Center
05:33PM 51.9167 -130.3833 316° Northwest 520 598 39,200 900 Climbing Vancouver Center
05:34PM 51.9833 -130.4667 322° Northwest 520 598 39,600 300 Climbing Anchorage Center
05:35PM 52.0667 -130.6333 309° West 520 598 39,700 180 Climbing Anchorage Center
05:36PM 52.1833 -130.8167 316° Northwest 530 610 40,000 120 Climbing Anchorage Center
05:37PM 52.2667 -130.9833 309° West 510 587 40,000  Level Anchorage Center
05:38PM 52.3667 -131.1667 312° West 510 587 40,000  Level Anchorage Center
05:39PM 52.4667 -131.3333 315° West 510 587 40,000  Level Anchorage Center
05:40PM 52.5500 -131.5167 307° West 510 587 40,000  Level Anchorage Center
05:41PM 52.6500 -131.6833 315° West 510 587 40,000  Level Anchorage Center
05:42PM 52.7500 -131.8667 312° West 510 587 40,000  Level Anchorage Center
05:43PM 52.8333 -132.0333 310° West 510 587 40,000  Level Anchorage Center
05:44PM 52.9500 -132.3167 304° West 510 587 40,000  Level Vancouver Center
05:45PM 53.0333 -132.4667 313° West 510 587 40,000  Level Vancouver Center
05:46PM 53.1167 -132.6500 307° West 500 575 40,000  Level Vancouver Center
05:47PM 53.2333 -132.8500 314° West 500 575 40,000  Level Vancouver Center
05:48PM 53.3167 -133.0000 313° West 500 575 40,000  Level Vancouver Center
05:49PM 53.4000 -133.2000 305° West 500 575 40,000  Level Vancouver Center
05:50PM 53.4833 -133.3500 313° West 500 575 40,000  Level Vancouver Center
05:51PM 53.5667 -133.5500 305° West 500 575 40,000  Level Vancouver Center
05:52PM 53.6500 -133.6333 329° Northwest 500 575 40,000  Level Anchorage Center
05:53PM 53.7333 -133.8000 310° West 500 575 40,000  Level Anchorage Center
05:54PM 53.8333 -133.9833 313° West 490 564 40,000  Level Anchorage Center
05:55PM 53.9167 -134.1667 308° West 490 564 40,000  Level Anchorage Center
05:56PM 54.0000 -134.3500 308° West 490 564 40,000  Level Anchorage Center
05:57PM 54.1000 -134.6167 303° West 490 564 40,000  Level Vancouver Center
05:58PM 54.1833 -134.8000 308° West 500 575 40,000  Level Vancouver Center
05:59PM 54.2833 -134.9667 316° Northwest 490 564 40,000  Level Vancouver Center
06:00PM 54.3500 -135.0667 319° Northwest 490 564 40,000  Level Anchorage Center
06:01PM 54.4333 -135.2333 311° West 480 552 40,000  Level Anchorage Center
06:02PM 54.5167 -135.4167 308° West 480 552 40,000  Level Anchorage Center
06:03PM 54.6000 -135.5833 311° West 470 541 40,000  Level Anchorage Center
06:04PM 54.6833 -135.7667 308° West 470 541 40,000  Level Anchorage Center
06:05PM 54.7667 -135.9500 308° West 480 552 40,000  Level Anchorage Center
06:06PM 54.8500 -136.1333 308° West 470 541 40,000  Level Anchorage Center
06:07PM 54.9333 -136.3000 311° West 470 541 40,000  Level Anchorage Center
06:08PM 55.0333 -136.5833 302° West 470 541 40,000  Level Vancouver Center
06:09PM 55.1167 -136.7667 309° West 470 541 40,000  Level Vancouver Center
06:10PM 55.1833 -136.8500 324° Northwest 470 541 40,000  Level Anchorage Center
06:11PM 55.2667 -137.0333 309° West 480 552 40,000  Level Anchorage Center
06:12PM 55.3333 -137.2167 303° West 480 552 40,000  Level Anchorage Center
06:13PM 55.4167 -137.4833 299° West 480 552 40,000  Level Vancouver Center
06:14PM 55.5000 -137.6000 322° Northwest 480 552 40,000  Level Anchorage Center
06:15PM 55.5833 -137.7833 309° West 470 541 40,000  Level Anchorage Center
06:16PM 55.6667 -137.9667 309° West 480 552 40,000  Level Anchorage Center
06:17PM 55.7500 -138.1667 307° West 490 564 40,000  Level Anchorage Center
06:18PM 55.8333 -138.3500 309° West 480 552 40,000  Level Anchorage Center
06:19PM 55.9000 -138.5333 303° West 480 552 40,000  Level Anchorage Center
06:20PM 55.9833 -138.7333 307° West 480 552 40,000  Level Anchorage Center
06:21PM 56.0667 -138.9333 307° West 480 552 40,000  Level Anchorage Center
06:22PM 56.1500 -139.1167 309° West 470 541 40,000  Level Anchorage Center
06:23PM 56.2167 -139.3167 301° West 480 552 40,000  Level Anchorage Center
06:24PM 56.3000 -139.5167 307° West 490 564 40,000  Level Anchorage Center
06:25PM 56.3833 -139.7000 309° West 480 552 40,000  Level Anchorage Center
06:26PM 56.4500 -139.9000 301° West 480 552 40,000  Level Anchorage Center
06:27PM 56.5333 -140.1167 305° West 490 564 40,000  Level Anchorage Center
06:28PM 56.5833 -140.3333 293° West 480 552 40,000  Level Anchorage Center
06:29PM 56.6333 -140.5667 291° West 490 564 40,000  Level Anchorage Center
06:30PM 56.6833 -140.8000 291° West 480 552 40,000  Level Anchorage Center
06:31PM 56.7500 -141.0167 299° West 480 552 40,000  Level Anchorage Center
06:32PM 56.8000 -141.2500 291° West 490 564 40,000  Level Anchorage Center
06:33PM 56.8500 -141.4833 291° West 480 552 40,000  Level Anchorage Center
06:34PM 56.9000 -141.7000 293° West 480 552 40,000  Level Anchorage Center
06:35PM 56.9667 -141.9333 298° West 490 564 40,000  Level Anchorage Center
06:36PM 57.0167 -142.1500 293° West 480 552 40,000  Level Anchorage Center
06:37PM 57.0667 -142.3833 292° West 480 552 40,000  Level Anchorage Center
06:38PM 57.1167 -142.6167 292° West 480 552 40,000  Level Anchorage Center
06:39PM 57.1667 -142.8333 293° West 470 541 40,000  Level Anchorage Center
06:40PM 57.2167 -143.0500 293° West 480 552 40,000  Level Anchorage Center
06:41PM 57.2667 -143.2833 292° West 490 564 40,000  Level Anchorage Center
06:42PM 57.3167 -143.5167 292° West 480 552 40,000  Level Anchorage Center
06:43PM 57.3500 -143.7500 285° West 480 552 40,000  Level Anchorage Center
06:44PM 57.4000 -143.9833 292° West 480 552 40,000  Level Anchorage Center
06:45PM 57.4500 -144.2167 292° West 480 552 40,000  Level Anchorage Center
06:46PM 57.5000 -144.4500 292° West 480 552 40,000  Level Anchorage Center
06:47PM 57.5500 -144.6833 292° West 480 552 40,000  Level Anchorage Center
06:48PM 57.6000 -144.9167 292° West 480 552 40,000  Level Anchorage Center
06:49PM 57.6500 -145.1500 292° West 470 541 40,000  Level Anchorage Center
06:50PM 57.7000 -145.3833 292° West 480 552 40,000  Level Anchorage Center
06:51PM 57.7333 -145.6167 285° West 470 541 40,000  Level Anchorage Center
06:52PM 57.7833 -145.8500 292° West 480 552 40,000  Level Anchorage Center
06:53PM 57.8333 -146.1000 291° West 480 552 40,000  Level Anchorage Center
06:54PM 57.8667 -146.3333 285° West 480 552 40,000  Level Anchorage Center
06:55PM 57.9167 -146.5667 292° West 480 552 40,000  Level Anchorage Center
06:56PM 57.9667 -146.8167 291° West 490 564 40,000  Level Anchorage Center
06:57PM 58.0000 -147.0500 285° West 480 552 40,000  Level Anchorage Center
06:58PM 58.0500 -147.3000 291° West 480 552 40,000  Level Anchorage Center
06:59PM 58.1000 -147.5500 291° West 480 552 40,000  Level Anchorage Center
07:00PM 58.1333 -147.7833 285° West 480 552 40,000  Level Anchorage Center
07:06PM 58.3580 -149.0860 285° West 498 573 40,000  Level FlightAware
07:06PM 58.3840 -149.2620 286° West 498 573 40,000  Level FlightAware
07:07PM 58.4050 -149.3980 286° West 498 573 40,000  Level FlightAware
07:08PM 58.4440 -149.6350 288° West 497 572 40,000  Level FlightAware
07:08PM 58.4710 -149.8080 287° West 492 566 40,000  Level FlightAware
07:09PM 58.5030 -150.0210 286° West 491 565 40,000  Level FlightAware
07:10PM 58.5220 -150.1490 286° West 491 565 40,000  Level FlightAware
07:11PM 58.5470 -150.3130 286° West 491 565 40,000  Level FlightAware
07:11PM 58.5660 -150.4410 286° West 491 565 40,000  Level FlightAware
07:12PM 58.5910 -150.6120 286° West 491 565 40,000  Level FlightAware
07:12PM 58.6040 -150.6970 286° West 491 565 40,000  Level FlightAware
07:13PM 58.6300 -150.8680 286° West 491 565 40,000  Level FlightAware
07:14PM 58.6490 -151.0000 286° West 491 565 40,000  Level FlightAware
07:15PM 58.7610 -151.3750 300° West 496 571 40,000  Level FlightAware
07:16PM 58.8020 -151.6000 289° West 495 570 40,000  Level FlightAware
07:16PM 58.8350 -151.7830 289° West 496 571 40,000  Level FlightAware
07:17PM 58.8580 -151.9160 289° West 497 572 40,000  Level FlightAware
07:18PM 58.8810 -152.0440 289° West 497 572 40,000  Level FlightAware
07:18PM 58.9120 -152.2160 289° West 497 572 40,000  Level FlightAware
07:19PM 58.9350 -152.3450 289° West 497 572 40,000  Level FlightAware
07:20PM 58.9580 -152.4740 289° West 497 572 40,000  Level FlightAware
07:20PM 58.9820 -152.6100 289° West 497 572 40,000  Level FlightAware
07:21PM 59.0130 -152.7860 289° West 497 572 40,000  Level FlightAware
07:22PM 59.0640 -153.1080 287° West 496 571 40,000  Level FlightAware
07:22PM 59.0940 -153.2910 288° West 496 571 40,000  Level FlightAware
07:23PM 59.1230 -153.4660 288° West 496 571 40,000  Level FlightAware
07:24PM 59.1470 -153.6180 287° West 496 571 40,000  Level FlightAware
07:24PM 59.1680 -153.7530 287° West 496 571 40,000  Level FlightAware
07:25PM 59.2050 -153.9770 288° West 494 568 40,000  Level FlightAware
07:26PM 59.2340 -154.1590 287° West 494 568 40,000  Level FlightAware
07:27PM 59.2610 -154.3330 287° West 494 568 40,000  Level FlightAware
07:27PM 59.2810 -154.4640 287° West 494 568 40,000  Level FlightAware
07:28PM 59.3090 -154.6420 287° West 494 568 40,000  Level FlightAware
07:29PM 59.3310 -154.7810 287° West 494 568 40,000  Level FlightAware
07:29PM 59.3510 -154.9120 287° West 494 568 40,000  Level FlightAware
07:30PM 59.3790 -155.0910 287° West 494 568 40,000  Level FlightAware
07:31PM 59.3980 -155.2150 287° West 494 568 40,000  Level FlightAware
07:31PM 59.4250 -155.3900 287° West 494 568 40,000  Level FlightAware
07:32PM 59.4470 -155.5330 287° West 494 568 40,000  Level FlightAware
07:33PM 59.4750 -155.7080 288° West 494 568 40,000  Level FlightAware
07:34PM 59.4960 -155.8430 287° West 494 568 40,000  Level FlightAware
07:34PM 59.5230 -156.0190 287° West 494 568 40,000  Level FlightAware
07:35PM 59.5420 -156.1440 287° West 494 568 40,000  Level FlightAware
07:36PM 59.6000 -156.7167 287° West 490 564 40,000  Level Anchorage Center
07:37PM 59.6333 -156.9833 284° West 490 564 40,000  Level Anchorage Center
07:38PM 59.6667 -157.2500 284° West 490 564 40,000  Level Anchorage Center
07:39PM 59.7000 -157.5167 284° West 490 564 40,000  Level Anchorage Center
07:40PM 59.7333 -157.7833 284° West 490 564 40,000  Level Anchorage Center
07:41PM 59.7667 -158.0500 284° West 500 575 40,000  Level Anchorage Center
07:42PM 59.8000 -158.3167 284° West 490 564 40,000  Level Anchorage Center
07:43PM 59.8333 -158.5833 284° West 490 564 40,000  Level Anchorage Center
07:44PM 59.8667 -158.8500 284° West 500 575 40,000  Level Anchorage Center
07:45PM 59.9000 -159.1333 283° West 480 552 40,000  Level Anchorage Center
07:46PM 59.9333 -159.4000 284° West 490 564 40,000  Level Anchorage Center
07:47PM 59.9500 -159.6667 277° West 490 564 40,000  Level Anchorage Center
07:48PM 59.9833 -159.9333 284° West 480 552 40,000  Level Anchorage Center
07:49PM 59.9833 -160.2167 270° West 500 575 40,000  Level Anchorage Center
07:50PM 59.9667 -160.4833 263° West 480 552 40,000  Level Anchorage Center
07:51PM 59.9667 -160.7500 270° West 490 564 40,000  Level Anchorage Center
07:52PM 59.9500 -161.0167 263° West 490 564 40,000  Level Anchorage Center
07:53PM 59.9333 -161.2833 263° West 480 552 40,000  Level Anchorage Center
07:54PM 59.9333 -161.5667 270° West 490 564 40,000  Level Anchorage Center
07:55PM 59.9167 -161.8333 263° West 490 564 40,000  Level Anchorage Center
07:56PM 59.9000 -162.1000 263° West 480 552 40,000  Level Anchorage Center
07:57PM 59.8833 -162.3833 263° West 490 564 40,000  Level Anchorage Center
07:58PM 59.8667 -162.6500 263° West 480 552 40,000  Level Anchorage Center
07:59PM 59.8500 -162.9167 263° West 490 564 40,000  Level Anchorage Center
08:00PM 59.8333 -163.1833 263° West 490 564 40,000  Level Anchorage Center
08:01PM 59.8167 -163.4500 263° West 490 564 40,000  Level Anchorage Center
08:02PM 59.8000 -163.7333 263° West 490 564 40,000  Level Anchorage Center
08:03PM 59.7833 -164.0000 263° West 490 564 40,000  Level Anchorage Center
08:04PM 59.7667 -164.2667 263° West 490 564 40,000  Level Anchorage Center
08:05PM 59.7500 -164.5333 263° West 490 564 40,000  Level Anchorage Center
08:06PM 59.7333 -164.8167 263° West 490 564 40,000  Level Anchorage Center
08:07PM 59.7167 -165.0833 263° West 490 564 40,000  Level Anchorage Center
08:08PM 59.7000 -165.3333 263° West 480 552 40,000  Level Anchorage Center
08:09PM 59.6667 -165.6500 258° West 470 541 40,000  Level Anchorage Center
08:10PM 59.6500 -165.9000 263° West 480 552 40,000  Level Anchorage Center
08:11PM 59.6333 -166.1167 261° West 480 552 40,000  Level Anchorage Center
08:12PM 59.6000 -166.3833 256° West 480 552 40,000  Level Anchorage Center
08:13PM 59.5833 -166.6500 263° West 480 552 40,000  Level Anchorage Center
08:15PM 59.5333 -167.1667 259° West 490 564 40,000  Level Anchorage Center
08:16PM 59.5167 -167.4333 263° West 490 564 40,000  Level Anchorage Center
08:17PM 59.4833 -167.7000 256° West 480 552 40,000  Level Anchorage Center
08:18PM 59.4500 -167.9500 255° West 480 552 40,000  Level Anchorage Center
08:19PM 59.4000 -168.2000 249° West 490 564 40,000  Level Anchorage Center
08:20PM 59.3667 -168.4500 255° West 480 552 40,000  Level Anchorage Center
08:21PM 59.3333 -168.7000 255° West 470 541 40,000  Level Anchorage Center
08:22PM 59.3000 -168.9500 255° West 480 552 40,000  Level Anchorage Center
08:23PM 59.2500 -169.2167 250° West 490 564 40,000  Level Anchorage Center
08:24PM 59.2167 -169.4667 255° West 480 552 40,000  Level Anchorage Center
08:25PM 59.1833 -169.7167 256° West 490 564 40,000  Level Anchorage Center
08:26PM 59.1333 -169.9667 249° West 480 552 40,000  Level Anchorage Center
08:27PM 59.1000 -170.2167 256° West 480 552 40,000  Level Anchorage Center
08:28PM 59.0500 -170.4667 249° West 480 552 40,000  Level Anchorage Center
08:29PM 59.0167 -170.7167 256° West 480 552 40,000  Level Anchorage Center
08:30PM 58.9667 -170.9667 249° West 480 552 40,000  Level Anchorage Center
08:31PM 58.9167 -171.2167 249° West 480 552 40,000  Level Anchorage Center
08:32PM 58.8833 -171.4500 255° West 480 552 40,000  Level Anchorage Center
08:33PM 58.8333 -171.7000 249° West 490 564 40,000  Level Anchorage Center
08:34PM 58.7833 -171.9500 249° West 470 541 40,000  Level Anchorage Center
08:35PM 58.7500 -172.1833 255° West 470 541 40,000  Level Anchorage Center
08:36PM 58.7000 -172.4333 249° West 470 541 40,000  Level Anchorage Center
08:37PM 58.6500 -172.6833 249° West 480 552 40,000  Level Anchorage Center
08:38PM 58.6167 -172.9167 255° West 480 552 40,000  Level Anchorage Center
08:39PM 58.5667 -173.1667 249° West 480 552 40,000  Level Anchorage Center
08:40PM 58.5167 -173.4000 248° West 470 541 40,000  Level Anchorage Center
08:41PM 58.4667 -173.6333 248° West 470 541 40,000  Level Anchorage Center
08:42PM 58.4167 -173.8833 249° West 480 552 40,000  Level Anchorage Center
08:43PM 58.3667 -174.1167 248° West 480 552 40,000  Level Anchorage Center
08:44PM 58.3167 -174.3500 248° West 480 552 40,000  Level Anchorage Center
08:45PM 58.2833 -174.5833 255° West 470 541 40,000  Level Anchorage Center
08:46PM 58.2333 -174.8333 249° West 480 552 40,000  Level Anchorage Center
08:47PM 58.1667 -175.0667 242° Southwest 480 552 40,000  Level Anchorage Center
08:48PM 58.1167 -175.3000 248° West 480 552 40,000  Level Anchorage Center
08:49PM 58.0667 -175.5333 248° West 480 552 40,000  Level Anchorage Center
08:50PM 58.0167 -175.7667 248° West 470 541 40,000  Level Anchorage Center
08:51PM 57.9667 -176.0000 248° West 470 541 40,000  Level Anchorage Center
08:52PM 57.9167 -176.2333 248° West 490 564 40,000  Level Anchorage Center
08:53PM 57.8667 -176.4667 248° West 480 552 40,000  Level Anchorage Center
08:54PM 57.8167 -176.6833 247° West 470 541 40,000  Level Anchorage Center
08:55PM 57.7500 -176.9333 244° Southwest 490 564 40,000  Level Anchorage Center
08:58PM 57.6672 -177.2950 247° West  Level FlightAware Approximate
09:04PM 57.2833 -178.8833 245° Southwest 480 552 40,000  Level Anchorage Center
09:05PM 57.2961 -178.8412 246° West  Level FlightAware Approximate
09:06PM 57.2415 -179.0594 245° Southwest  Level FlightAware Approximate
09:07PM 57.1865 -179.2771 245° Southwest  Level FlightAware Approximate
09:08PM 57.1312 -179.4940 245° Southwest  Level FlightAware Approximate
09:09PM 57.0755 -179.7103 245° Southwest  Level FlightAware Approximate
09:09PM 57.0000 180.0000 239° Southwest 482 555 40,000  Level Anchorage Center
09:10PM 56.9355 179.8042 239° Southwest 480 552 40,000  Level FlightAware Transoceanic
09:11PM 56.8707 179.6090 239° Southwest 480 552 40,000  Level FlightAware Transoceanic
09:12PM 56.8056 179.4145 238° Southwest 480 552 40,000  Level FlightAware Transoceanic
09:13PM 56.7402 179.2207 238° Southwest 480 552 40,000  Level FlightAware Transoceanic
09:13PM 56.6833 179.0500 238° Southwest 479 551 40,000  Level Anchorage Center
09:14PM 56.6745 179.0276 238° Southwest 480 552 40,000  Level FlightAware Transoceanic
09:15PM 56.5763 178.7418 238° Southwest 482 555 40,000  Level FlightAware Transoceanic
09:16PM 56.5045 178.5348 238° Southwest 482 555 40,000  Level FlightAware Transoceanic
09:17PM 56.4323 178.3286 238° Southwest 482 555 40,000  Level FlightAware Transoceanic
09:18PM 56.3598 178.1233 237° Southwest 482 555 40,000  Level FlightAware Transoceanic
09:19PM 56.2870 177.9187 237° Southwest 482 555 40,000  Level FlightAware Transoceanic
09:20PM 56.2570 177.8322 237° Southwest 479 551 40,000  Level FlightAware Transoceanic
09:21PM 56.1847 177.6319 237° Southwest 479 551 40,000  Level FlightAware Transoceanic
09:22PM 56.1122 177.4324 237° Southwest 479 551 40,000  Level FlightAware Transoceanic
09:23PM 56.0394 177.2336 237° Southwest 479 551 40,000  Level FlightAware Transoceanic
09:23PM 56.0000 177.1167 236° Southwest 475 547 40,000  Level Anchorage Center
09:24PM 55.9662 177.0355 236° Southwest 479 551 40,000  Level FlightAware Transoceanic
09:24PM 55.9167 176.9167 236° Southwest 480 552 40,000  Level Anchorage Center
09:25PM 55.8927 176.8382 236° Southwest 479 551 40,000  Level FlightAware Transoceanic
09:25PM 55.8333 176.7000 236° Southwest 480 552 40,000  Level Anchorage Center
09:26PM 55.8189 176.6417 236° Southwest 479 551 40,000  Level FlightAware Transoceanic
09:26PM 55.7667 176.5500 232° Southwest 460 529 40,000  Level Anchorage Center
09:27PM 55.7448 176.4459 236° Southwest 479 551 40,000  Level FlightAware Transoceanic
09:27PM 55.7000 176.3167 243° Southwest 480 552 40,000  Level Anchorage Center
09:28PM 55.6703 176.2508 236° Southwest 479 551 40,000  Level FlightAware Transoceanic
09:28PM 55.6167 176.1000 236° Southwest 480 552 40,000  Level Anchorage Center
09:29PM 55.5500 175.9333 235° Southwest 480 552 40,000  Level Anchorage Center
09:30PM 55.4667 175.7167 236° Southwest 480 552 40,000  Level Anchorage Center
09:31PM 55.4000 175.5667 232° Southwest 470 541 40,000  Level Anchorage Center
09:32PM 55.3167 175.3500 236° Southwest 470 541 40,000  Level Anchorage Center
09:33PM 55.2500 175.1833 235° Southwest 480 552 40,000  Level Anchorage Center
09:34PM 55.1667 174.9833 234° Southwest 470 541 40,000  Level Anchorage Center
09:35PM 55.1000 174.8167 235° Southwest 470 541 40,000  Level Anchorage Center
09:36PM 55.0167 174.6167 234° Southwest 470 541 40,000  Level Anchorage Center
09:37PM 54.9333 174.4167 234° Southwest 470 541 40,000  Level Anchorage Center
09:38PM 54.8667 174.2500 235° Southwest 470 541 40,000  Level Anchorage Center
09:39PM 54.7833 174.0500 234° Southwest 470 541 40,000  Level Anchorage Center
09:40PM 54.7167 173.8833 235° Southwest 470 541 40,000  Level Anchorage Center
09:41PM 54.6333 173.6833 234° Southwest 470 541 40,000  Level Anchorage Center
09:42PM 54.5667 173.5167 235° Southwest 470 541 40,000  Level Anchorage Center
09:43PM 54.4833 173.3333 232° Southwest 470 541 40,000  Level Anchorage Center
09:44PM 54.4000 173.1333 234° Southwest 470 541 40,000  Level Anchorage Center
09:45PM 54.3333 172.9833 233° Southwest 460 529 40,000  Level Anchorage Center
09:46PM 54.2500 172.7833 235° Southwest 470 541 40,000  Level Anchorage Center
09:47PM 54.1833 172.6333 233° Southwest 450 518 40,000  Level Anchorage Center
09:48PM 54.1000 172.4500 232° Southwest 450 518 40,000  Level Anchorage Center
09:49PM 54.0333 172.3000 233° Southwest 450 518 40,000  Level Anchorage Center
09:50PM 53.9667 172.1000 241° Southwest 460 529 40,000  Level Anchorage Center
09:51PM 53.8833 171.9000 235° Southwest 470 541 40,000  Level Anchorage Center
09:52PM 53.8167 171.7500 233° Southwest 470 541 40,000  Level Anchorage Center
09:53PM 53.7333 171.5667 233° Southwest 450 518 40,000  Level Anchorage Center
09:54PM 53.6667 171.4167 233° Southwest 450 518 40,000  Level Anchorage Center
09:55PM 53.5833 171.2167 235° Southwest 450 518 40,000  Level Anchorage Center
09:56PM 53.5167 171.0833 230° Southwest 450 518 40,000  Level Anchorage Center
09:57PM 53.4500 170.8833 241° Southwest 460 529 40,000  Level Anchorage Center
09:58PM 53.3833 170.7333 233° Southwest 460 529 40,000  Level Anchorage Center
09:59PM 53.3000 170.5500 233° Southwest 450 518 40,000  Level Anchorage Center
10:00PM 53.2167 170.3667 233° Southwest 460 529 40,000  Level Anchorage Center
10:01PM 53.1333 170.2167 227° Southwest 460 529 40,000  Level Anchorage Center
10:02PM 53.0667 170.0333 239° Southwest 450 518 40,000  Level Anchorage Center
10:03PM 52.9833 169.8833 227° Southwest 480 552 40,000  Level Anchorage Center
10:04PM 52.9167 169.6833 241° Southwest 460 529 40,000  Level Anchorage Center
10:05PM 52.8667 169.5167 244° Southwest 470 541 40,000  Level Anchorage Center
10:06PM 52.8000 169.3167 241° Southwest 470 541 40,000  Level Anchorage Center
10:07PM 52.7333 169.1167 241° Southwest 450 518 40,000  Level Anchorage Center
10:09PM 52.6167 168.7667 241° Southwest 450 518 40,000  Level Anchorage Center
10:10PM 52.5500 168.6167 234° Southwest 470 541 40,000  Level Anchorage Center
10:11PM 52.4833 168.4167 241° Southwest 450 518 40,000  Level Anchorage Center
10:12PM 52.4333 168.2500 244° Southwest 450 518 40,000  Level Anchorage Center
10:13PM 52.3667 168.0667 239° Southwest 470 541 40,000  Level Anchorage Center
10:14PM 52.3167 167.9000 244° Southwest 450 518 40,000  Level Anchorage Center
10:15PM 52.2333 167.7167 233° Southwest 460 529 40,000  Level Anchorage Center
10:16PM 52.1667 167.5167 242° Southwest 460 529 40,000  Level Anchorage Center
10:19PM 52.0569 167.2192 239° Southwest  Level FlightAware Approximate
10:20PM 51.9000 166.7500 238° Southwest 455 524 40,000  Level Anchorage Center
10:26PM 51.5781 165.9607 239° Southwest  Level FlightAware Approximate
10:27PM 51.5008 165.7199 238° Southwest 455 524 40,000  Level FlightAware Transoceanic
10:27PM 51.4333 165.5500 237° Southwest 447 514 40,000  Level Anchorage Center
10:28PM 51.4333 165.5500 237° Southwest 455 524 40,000  Level FlightAware Transoceanic
10:29PM 51.3650 165.3818 237° Southwest 455 524 40,000  Level FlightAware Transoceanic
10:30PM 51.2964 165.2142 237° Southwest 455 524 40,000  Level FlightAware Transoceanic
10:30PM 51.2500 165.1167 237° Southwest 451 519 40,000  Level Anchorage Center
10:31PM 51.2276 165.0470 237° Southwest 455 524 40,000  Level FlightAware Transoceanic
10:32PM 51.1586 164.8803 236° Southwest 455 524 40,000  Level FlightAware Transoceanic
10:33PM 51.0893 164.7142 236° Southwest 455 524 40,000  Level FlightAware Transoceanic
10:34PM 51.0197 164.5485 236° Southwest 447 514 40,000  Level FlightAware Transoceanic
10:35PM 50.9500 164.3833 237° Southwest 447 514 40,000  Level FlightAware Transoceanic
10:35PM 50.9500 164.3833 237° Southwest 449 517 40,000  Level Anchorage Center
10:36PM 50.8824 164.2191 237° Southwest 451 519 40,000  Level FlightAware Transoceanic
10:37PM 50.8145 164.0553 237° Southwest 451 519 40,000  Level FlightAware Transoceanic
10:38PM 50.7464 163.8921 237° Southwest 451 519 40,000  Level FlightAware Transoceanic
10:39PM 50.6782 163.7293 236° Southwest 451 519 40,000  Level FlightAware Transoceanic
10:40PM 50.6096 163.5670 236° Southwest 451 519 40,000  Level FlightAware Transoceanic
10:40PM 50.6000 163.5333 236° Southwest 448 516 40,000  Level Anchorage Center
10:41PM 50.5409 163.4051 236° Southwest 449 517 40,000  Level FlightAware Transoceanic
10:42PM 50.4719 163.2437 236° Southwest 449 517 40,000  Level FlightAware Transoceanic
10:43PM 50.4027 163.0828 236° Southwest 449 517 40,000  Level FlightAware Transoceanic
10:44PM 50.3332 162.9224 236° Southwest 449 517 40,000  Level FlightAware Transoceanic
10:45PM 50.2636 162.7624 236° Southwest 449 517 40,000  Level FlightAware Transoceanic
10:46PM 50.1876 162.5822 235° Southwest 448 516 40,000  Level FlightAware Transoceanic
10:47PM 50.1181 162.4253 235° Southwest 448 516 40,000  Level FlightAware Transoceanic
10:48PM 50.0484 162.2688 235° Southwest 448 516 40,000  Level FlightAware Transoceanic
10:49PM 49.9785 162.1128 235° Southwest 448 516 40,000  Level FlightAware Transoceanic
10:49PM 49.9333 162.0000 235° Southwest 442 509 40,000  Level Anchorage Center
10:50PM 49.9084 161.9572 235° Southwest 448 516 40,000  Level FlightAware Transoceanic
10:51PM 49.8380 161.8021 235° Southwest 448 516 40,000  Level FlightAware Transoceanic
10:52PM 49.7675 161.6475 235° Southwest 448 516 40,000  Level FlightAware Transoceanic
10:53PM 49.6968 161.4933 235° Southwest 448 516 40,000  Level FlightAware Transoceanic
10:54PM 49.6258 161.3395 234° Southwest 448 516 40,000  Level FlightAware Transoceanic
10:55PM 49.5547 161.1862 234° Southwest 448 516 40,000  Level FlightAware Transoceanic
10:55PM 49.4833 161.0333 234° Southwest 440 506 40,000  Level Anchorage Center
10:56PM 49.4833 161.0333 234° Southwest 442 509 40,000  Level FlightAware Transoceanic
10:57PM 49.4034 160.8625 234° Southwest 442 509 40,000  Level FlightAware Transoceanic
10:58PM 49.3232 160.6922 234° Southwest 442 509 40,000  Level FlightAware Transoceanic
10:59PM 49.2428 160.5225 234° Southwest 442 509 40,000  Level FlightAware Transoceanic
10:59PM 49.2500 160.5333 234° Southwest 437 503 40,000  Level Anchorage Center
11:00PM 49.1621 160.3533 234° Southwest 442 509 40,000  Level FlightAware Transoceanic
11:01PM 49.0812 160.1847 234° Southwest 442 509 40,000  Level FlightAware Transoceanic
11:02PM 49.0696 160.1607 234° Southwest 440 506 40,000  Level FlightAware Transoceanic
11:03PM 49.0000 160.0167 233° Southwest 440 506 40,000  Level FlightAware Transoceanic
11:04PM 48.9235 159.8605 233° Southwest 440 506 40,000  Level FlightAware Transoceanic
11:05PM 48.8467 159.7049 233° Southwest 437 503 40,000  Level FlightAware Transoceanic
11:06PM 48.7697 159.5497 233° Southwest 437 503 40,000  Level FlightAware Transoceanic
11:07PM 48.6926 159.3951 233° Southwest 437 503 40,000  Level FlightAware Transoceanic
11:08PM 48.6152 159.2408 233° Southwest 437 503 40,000  Level FlightAware Transoceanic
11:09PM 48.5376 159.0871 233° Southwest 437 503 40,000  Level FlightAware Transoceanic
11:10PM 48.4599 158.9338 232° Southwest 437 503 40,000  Level FlightAware Transoceanic
11:11PM 48.3819 158.7810 232° Southwest 437 503 40,000  Level FlightAware Transoceanic
11:12PM 48.3037 158.6287 232° Southwest 437 503 40,000  Level FlightAware Transoceanic
11:13PM 48.2253 158.4768 232° Southwest 437 503 40,000  Level FlightAware Transoceanic
11:14PM 48.1467 158.3254 232° Southwest 437 503 40,000  Level FlightAware Transoceanic
11:15PM 48.0679 158.1745 232° Southwest 437 503 40,000  Level FlightAware Transoceanic
11:16PM 47.9889 158.0240 232° Southwest 437 503 40,000  Level FlightAware Transoceanic
11:17PM 47.9098 157.8740 232° Southwest 437 503 40,000  Level FlightAware Transoceanic
11:18PM 47.8304 157.7244 232° Southwest 437 503 40,000  Level FlightAware Transoceanic
11:19PM 47.7508 157.5753 231° Southwest 437 503 40,000  Level FlightAware Transoceanic
11:20PM 47.6711 157.4267 231° Southwest 437 503 40,000  Level FlightAware Transoceanic
11:21PM 47.5911 157.2785 231° Southwest 437 503 40,000  Level FlightAware Transoceanic
11:22PM 47.5110 157.1308 231° Southwest 437 503 40,000  Level FlightAware Transoceanic
11:23PM 47.4306 156.9835 231° Southwest 437 503 40,000  Level FlightAware Transoceanic
11:24PM 47.3501 156.8366 231° Southwest 437 503 40,000  Level FlightAware Transoceanic
11:25PM 47.2694 156.6902 231° Southwest 437 503 40,000  Level FlightAware Transoceanic
11:26PM 47.1885 156.5443 231° Southwest 437 503 40,000  Level FlightAware Transoceanic
11:27PM 47.1075 156.3988 231° Southwest 437 503 40,000  Level FlightAware Transoceanic
11:28PM 47.0262 156.2538 231° Southwest 437 503 40,000  Level FlightAware Transoceanic
11:29PM 46.9448 156.1091 230° Southwest 437 503 40,000  Level FlightAware Transoceanic
11:30PM 46.8631 155.9650 230° Southwest 437 503 40,000  Level FlightAware Transoceanic
11:31PM 46.7813 155.8212 230° Southwest 437 503 40,000  Level FlightAware Transoceanic
11:32PM 46.6993 155.6779 230° Southwest 437 503 40,000  Level FlightAware Transoceanic
11:33PM 46.6172 155.5351 230° Southwest 437 503 40,000  Level FlightAware Transoceanic
11:34PM 46.5349 155.3926 230° Southwest 437 503 40,000  Level FlightAware Transoceanic
11:35PM 46.4523 155.2506 230° Southwest 437 503 40,000  Level FlightAware Transoceanic
11:36PM 46.3696 155.1091 230° Southwest 437 503 40,000  Level FlightAware Transoceanic
11:37PM 46.2868 154.9679 230° Southwest 437 503 40,000  Level FlightAware Transoceanic
11:38PM 46.2037 154.8272 229° Southwest 437 503 40,000  Level FlightAware Transoceanic
11:39PM 46.1205 154.6869 229° Southwest 437 503 40,000  Level FlightAware Transoceanic
11:40PM 46.0372 154.5470 229° Southwest 437 503 40,000  Level FlightAware Transoceanic
11:41PM 45.9536 154.4076 229° Southwest 437 503 40,000  Level FlightAware Transoceanic
11:42PM 45.8699 154.2686 229° Southwest 437 503 40,000  Level FlightAware Transoceanic
11:43PM 45.7860 154.1300 229° Southwest 437 503 40,000  Level FlightAware Transoceanic
11:44PM 45.7019 153.9918 229° Southwest 437 503 40,000  Level FlightAware Transoceanic
11:45PM 45.6177 153.8540 229° Southwest 437 503 40,000  Level FlightAware Transoceanic
11:46PM 45.5236 153.7261 224° Southwest  Level FlightAware Approximate
11:47PM 45.4295 153.5986 224° Southwest  Level FlightAware Approximate
11:48PM 45.4360 153.5848 229° Southwest  Level FlightAware Approximate
11:49PM 45.3504 153.4457 229° Southwest  Level FlightAware Approximate
11:50PM 45.2646 153.3070 229° Southwest  Level FlightAware Approximate
11:51PM 45.1787 153.1687 229° Southwest  Level FlightAware Approximate
11:52PM 45.0926 153.0309 229° Southwest  Level FlightAware Approximate
11:53PM 45.0064 152.8935 228° Southwest  Level FlightAware Approximate
11:54PM 44.9190 152.7577 228° Southwest  Level FlightAware Approximate
11:55PM 44.8314 152.6224 228° Southwest  Level FlightAware Approximate
11:56PM 44.7436 152.4876 228° Southwest  Level FlightAware Approximate
11:57PM 44.6557 152.3531 227° Southwest  Level FlightAware Approximate
11:58PM 44.5676 152.2191 227° Southwest  Level FlightAware Approximate
11:59PM 44.4793 152.0854 227° Southwest  Level FlightAware Approximate
12:00AM 44.3909 151.9522 227° Southwest  Level FlightAware Approximate
12:01AM 44.3023 151.8194 227° Southwest  Level FlightAware Approximate
12:02AM 44.2136 151.6869 227° Southwest  Level FlightAware Approximate
12:03AM 44.1247 151.5549 227° Southwest  Level FlightAware Approximate
12:04AM 44.0357 151.4233 227° Southwest  Level FlightAware Approximate
12:05AM 43.9465 151.2920 227° Southwest  Level FlightAware Approximate
12:06AM 43.8572 151.1612 227° Southwest  Level FlightAware Approximate
12:07AM 43.7677 151.0307 227° Southwest  Level FlightAware Approximate
12:08AM 43.6781 150.9007 226° Southwest  Level FlightAware Approximate
12:09AM 43.5884 150.7710 226° Southwest  Level FlightAware Approximate
12:10AM 43.4985 150.6417 226° Southwest  Level FlightAware Approximate
12:11AM 43.4084 150.5128 226° Southwest  Level FlightAware Approximate
12:12AM 43.3182 150.3843 226° Southwest  Level FlightAware Approximate
12:13AM 43.2278 150.2562 226° Southwest  Level FlightAware Approximate
12:14AM 43.1373 150.1284 226° Southwest  Level FlightAware Approximate
12:15AM 43.0467 150.0010 226° Southwest  Level FlightAware Approximate
12:16AM 42.9560 149.8740 226° Southwest  Level FlightAware Approximate
12:17AM 42.8650 149.7474 226° Southwest  Level FlightAware Approximate
12:18AM 42.7740 149.6211 226° Southwest  Level FlightAware Approximate
12:19AM 42.6828 149.4953 225° Southwest  Level FlightAware Approximate
12:20AM 42.5915 149.3697 225° Southwest  Level FlightAware Approximate
12:20AM 42.7110 149.5280 225° Southwest 439 505 40,000  Level FlightAware
12:20AM 42.6660 149.4640 226° Southwest 439 505 40,000  Level FlightAware
12:21AM 42.6060 149.3800 226° Southwest 439 505 40,000  Level FlightAware
12:22AM 42.5630 149.3190 226° Southwest 439 505 40,000  Level FlightAware
12:22AM 42.5060 149.2400 226° Southwest 439 505 40,000  Level FlightAware
12:23AM 42.4630 149.1790 226° Southwest 439 505 40,000  Level FlightAware
12:24AM 42.4050 149.0980 226° Southwest 439 505 40,000  Level FlightAware
12:24AM 42.3620 149.0380 226° Southwest 439 505 40,000  Level FlightAware
12:25AM 42.3190 148.9770 226° Southwest 439 505 40,000  Level FlightAware
12:26AM 42.1450 148.7570 223° Southwest 443 510 40,000  Level FlightAware
12:27AM 42.0900 148.6830 225° Southwest 443 510 40,000  Level FlightAware
12:27AM 42.0300 148.6020 225° Southwest 443 510 40,000  Level FlightAware
12:28AM 41.9700 148.5230 224° Southwest 449 517 40,000  Level FlightAware
12:29AM 41.9040 148.4360 224° Southwest 449 517 40,000  Level FlightAware
12:29AM 41.8530 148.3680 225° Southwest 449 517 40,000  Level FlightAware
12:30AM 41.7860 148.2790 225° Southwest 448 516 40,000  Level FlightAware
12:31AM 41.7190 148.1910 224° Southwest 448 516 40,000  Level FlightAware
12:31AM 41.6680 148.1240 224° Southwest 449 517 40,000  Level FlightAware
12:32AM 41.6160 148.0580 224° Southwest 449 517 40,000  Level FlightAware
12:33AM 41.5500 147.9730 224° Southwest 452 520 40,000  Level FlightAware
12:34AM 41.4660 147.8650 224° Southwest 449 517 40,000  Level FlightAware
12:34AM 41.4030 147.7850 224° Southwest 449 517 40,000  Level FlightAware
12:35AM 41.3440 147.7100 224° Southwest 450 518 40,000  Level FlightAware
12:36AM 41.2800 147.6280 224° Southwest 452 520 40,000  Level FlightAware
12:36AM 41.2300 147.5640 224° Southwest 452 520 40,000  Level FlightAware
12:37AM 41.1510 147.4650 223° Southwest 451 519 40,000  Level FlightAware
12:38AM 41.0820 147.3780 224° Southwest 452 520 40,000  Level FlightAware
12:39AM 41.0150 147.2930 224° Southwest 453 521 40,000  Level FlightAware
12:39AM 40.9510 147.2140 223° Southwest 453 521 40,000  Level FlightAware
12:40AM 40.8900 147.1370 224° Southwest 461 531 40,000  Level FlightAware
12:41AM 40.8200 147.0500 223° Southwest 463 533 40,000  Level FlightAware
12:41AM 40.7580 146.9740 223° Southwest 463 533 40,000  Level FlightAware
12:42AM 40.6950 146.8950 224° Southwest 464 534 40,000  Level FlightAware
12:43AM 40.6320 146.8180 223° Southwest 464 534 40,000  Level FlightAware
12:43AM 40.5720 146.7430 224° Southwest 466 536 40,000  Level FlightAware
12:44AM 40.5230 146.6840 222° Southwest 466 536 40,000  Level FlightAware
12:45AM 40.4590 146.6050 223° Southwest 466 536 40,000  Level FlightAware
12:45AM 40.3720 146.4990 223° Southwest 464 534 40,000  Level FlightAware
12:46AM 40.3080 146.4220 223° Southwest 464 534 40,000  Level FlightAware
12:47AM 40.2470 146.3460 224° Southwest 464 534 40,000  Level FlightAware
12:47AM 40.1900 146.2770 223° Southwest 466 536 40,000  Level FlightAware
12:48AM 40.1160 146.1890 222° Southwest 468 539 40,000  Level FlightAware
12:49AM 40.0520 146.1120 223° Southwest 469 540 40,000  Level FlightAware
12:50AM 39.9250 145.9580 223° Southwest 469 540 40,000  Level FlightAware
12:51AM 39.8740 145.8960 223° Southwest 469 540 40,000  Level FlightAware
12:51AM 39.8240 145.8350 223° Southwest 469 540 40,000  Level FlightAware
12:52AM 39.7750 145.7760 223° Southwest 469 540 40,000  Level FlightAware
12:53AM 39.7130 145.7010 223° Southwest 469 540 40,000  Level FlightAware
12:53AM 39.6650 145.6420 223° Southwest 469 540 40,000  Level FlightAware
12:54AM 39.5980 145.5620 223° Southwest 469 540 40,000  Level FlightAware
12:55AM 39.4600 145.4080 221° Southwest 475 547 40,000  Level FlightAware
12:55AM 39.4080 145.3470 222° Southwest 475 547 40,000  Level FlightAware
12:56AM 39.3030 145.2250 222° Southwest 477 549 40,000  Level FlightAware
12:57AM 39.2360 145.1470 222° Southwest 477 549 40,000  Level FlightAware
12:58AM 39.1540 145.0510 222° Southwest 479 551 40,000  Level FlightAware
12:59AM 39.0870 144.9730 222° Southwest 479 551 40,000  Level FlightAware
12:59AM 39.0360 144.9140 222° Southwest 479 551 40,000  Level FlightAware
01:00AM 38.9680 144.8350 222° Southwest 479 551 40,000  Level FlightAware
01:01AM 38.8790 144.7340 221° Southwest 462 532 40,000  Level FlightAware
01:02AM 38.7740 144.6130 222° Southwest 461 531 40,000  Level FlightAware
01:03AM 38.6850 144.5120 222° Southwest 461 531 40,000  Level FlightAware
01:03AM 38.6370 144.4560 222° Southwest 461 531 40,000  Level FlightAware
01:04AM 38.5580 144.3680 221° Southwest 469 540 40,000  Level FlightAware
01:05AM 38.4450 144.2390 222° Southwest 470 541 40,000  Level FlightAware
01:06AM 38.3500 144.1330 221° Southwest 470 541 40,000  Level FlightAware
01:07AM 38.2600 144.0330 221° Southwest 471 542 40,000  Level FlightAware
01:08AM 38.1930 143.9570 222° Southwest 473 544 40,000  Level FlightAware
01:08AM 38.1370 143.8940 222° Southwest 471 542 40,000  Level FlightAware
01:09AM 38.0680 143.8180 221° Southwest 474 545 40,000  Level FlightAware
01:10AM 37.9930 143.7350 221° Southwest 471 542 40,000  Level FlightAware
01:10AM 37.9350 143.6700 221° Southwest 473 544 40,000  Level FlightAware
01:11AM 37.8800 143.5850 231° Southwest 473 544 40,000  Level FlightAware
01:12AM 37.8310 143.4770 240° Southwest 469 540 40,000  Level FlightAware
01:12AM 37.7870 143.3810 240° Southwest 469 540 40,000  Level FlightAware
01:13AM 37.7440 143.2870 240° Southwest 474 545 40,000  Level FlightAware
01:14AM 37.6950 143.1800 240° Southwest 479 551 40,000  Level FlightAware
01:14AM 37.6490 143.0810 240° Southwest 481 554 40,000  Level FlightAware
01:15AM 37.5980 142.9720 239° Southwest 482 555 40,000  Level FlightAware
01:16AM 37.5530 142.8750 240° Southwest 479 551 40,000  Level FlightAware
01:17AM 37.5070 142.7800 239° Southwest 475 547 40,000  Level FlightAware
01:17AM 37.4670 142.7160 232° Southwest 485 558 40,000  Level FlightAware
01:17AM 37.4390 142.6930 213° Southwest 484 557 40,000  Level FlightAware
01:18AM 37.3500 142.6650 194° South 500 575 40,000  Level FlightAware
01:19AM 37.2580 142.6620 181° South 487 560 40,000  Level FlightAware
01:19AM 37.1590 142.6270 196° South 481 554 40,000  Level FlightAware
01:20AM 37.0740 142.5900 199° South 478 550 40,000 -180 Level FlightAware
01:21AM 36.9790 142.5480 199° South 478 550 39,800 -780 Descending FlightAware
01:21AM 36.8940 142.5100 200° South 481 554 38,900 -1,500 Descending FlightAware
01:22AM 36.7860 142.4630 199° South 494 568 37,600 -1,620 Descending FlightAware
01:23AM 36.7210 142.4350 199° South 497 572 36,800 -1,740 Descending FlightAware
01:24AM 36.6330 142.3970 199° South 498 573 35,600 -1,740 Descending FlightAware
01:24AM 36.5450 142.3580 200° South 509 586 34,500 -1,620 Descending FlightAware
01:25AM 36.4450 142.3140 199° South 494 568 33,400 -1,920 Descending FlightAware
01:26AM 36.3580 142.2770 199° South 495 570 31,800 -2,340 Descending FlightAware
01:26AM 36.2670 142.2370 200° South 474 545 30,100 -2,280 Descending FlightAware
01:27AM 36.1920 142.2050 199° South 460 529 28,800 -2,220 Descending FlightAware
01:28AM 36.1010 142.1660 199° South 430 495 27,200 -2,400 Descending FlightAware
01:28AM 36.0240 142.1330 199° South 423 487 25,400 -2,520 Descending FlightAware
01:29AM 35.9620 142.1060 199° South 415 478 23,900 -2,280 Descending FlightAware
01:30AM 35.8680 142.0660 199° South 395 455 22,100 -1,920 Descending FlightAware
01:31AM 35.8020 141.9810 226° Southwest 378 435 20,600 -1,860 Descending FlightAware
01:32AM 35.7720 141.8900 248° West 364 419 19,000 -2,460 Descending FlightAware
01:32AM 35.7410 141.8070 245° Southwest 357 411 16,900 -2,100 Descending FlightAware
01:33AM 35.7030 141.7360 237° Southwest 350 403 16,000 -1,560 Descending FlightAware
01:34AM 35.6710 141.6610 242° Southwest 367 422 14,700 -1,800 Descending FlightAware
01:34AM 35.6680 141.6310 263° West 370 426 14,400 -1,140 Descending FlightAware
01:35AM 35.6710 141.5420 272° West 368 423 13,700 -1,080 Descending FlightAware
01:35AM 35.6740 141.4650 273° West 367 422 13,000 -1,020 Descending FlightAware
01:36AM 35.6770 141.3760 272° West 363 418 12,400 -900 Descending FlightAware
01:37AM 35.6800 141.2910 273° West 359 413 11,800 -960 Descending FlightAware
01:37AM 35.6900 141.2170 279° West 353 406 11,200 -780 Descending FlightAware
01:38AM 35.7130 141.1450 291° West 343 395 10,800 -600 Descending FlightAware
01:39AM 35.7750 141.0170 301° West 300 345 10,100 -480 Descending FlightAware
01:40AM 35.7920 140.9820 301° West 280 322 10,000 -480 Descending FlightAware
01:40AM 35.8120 140.9400 300° West 278 320 9,700 -600 Descending FlightAware
01:41AM 35.8240 140.9060 294° West 278 320 9,500 -540 Descending FlightAware
01:41AM 35.8350 140.8740 293° West 278 320 9,300 -540 Descending FlightAware
01:41AM 35.8480 140.8360 293° West 278 320 9,100 -540 Descending FlightAware
01:42AM 35.8620 140.7970 294° West 276 318 8,800 -960 Descending FlightAware
01:42AM 35.8760 140.7590 294° West 279 321 8,300 -1,200 Descending FlightAware
01:43AM 35.8940 140.7070 293° West 269 310 7,700 -960 Descending FlightAware
01:43AM 35.9010 140.6850 291° West 267 307 7,500 -1,140 Descending FlightAware
01:44AM 35.9140 140.6470 293° West 268 308 6,900 -1,200 Descending FlightAware
01:44AM 35.9280 140.6070 293° West 265 305 6,400 -1,080 Descending FlightAware
01:44AM 35.9330 140.5900 290° West 263 303 6,200 -600 Descending FlightAware
01:45AM 35.9470 140.5510 294° West 256 295 6,000 -660 Descending FlightAware
01:45AM 35.9590 140.5130 291° West 257 296 5,600 -960 Descending FlightAware
01:45AM 35.9630 140.4980 288° West 256 295 5,400 -1,320 Descending FlightAware
01:46AM 35.9660 140.4530 275° West 255 293 4,700 -1,380 Descending FlightAware
01:46AM 35.9670 140.4320 273° West 257 296 4,400 -1,200 Descending FlightAware
01:46AM 35.9690 140.3930 274° West 256 295 3,900 -1,320 Descending FlightAware
01:47AM 35.9720 140.3500 275° West 246 283 3,200 -1,020 Descending FlightAware
01:47AM 35.9730 140.3240 273° West 237 273 3,100 -540 Descending FlightAware
01:48AM 35.9720 140.3020 267° West 224 258 2,900 -420 Descending FlightAware
01:48AM 35.9570 140.2770 233° Southwest 202 232 2,800 -180 Descending FlightAware
01:48AM 35.9430 140.2700 202° Southwest 195 224 2,800  Level FlightAware
01:49AM 35.9210 140.2660 188° South 193 222 2,800  Level FlightAware
01:49AM 35.8990 140.2780 156° South 193 222 2,800 -540 Level FlightAware
01:50AM 35.8740 140.2960 150° Southeast 199 229 2,300 -1,020 Descending FlightAware
01:50AM 35.8540 140.3100 150° Southeast 197 227 1,900 -1,080 Descending FlightAware
01:50AM 35.8420 140.3190 149° Southeast 185 213 1,600 -1,020 Descending FlightAware
01:51AM 35.8240 140.3320 150° Southeast 173 199 1,200 -1,020 Descending FlightAware
01:51AM 35.8120 140.3410 149° Southeast 158 182 900 -840 Descending FlightAware
01:52AM 35.7950 140.3530 150° Southeast 134 154 600 -720 Descending FlightAware
01:52AM 35.7810 140.3630 150° Southeast 137 158 300 -360 Descending FlightAware
01:52AM 35.7680 140.3730 148° Southeast 138 159 300  Level FlightAware
01:55AM 35.7647 140.3864 253° West  Level Estimated
01:56AM 35.7647 140.3864 253° West  Level Estimated
01:57AM 35.7647 140.3864 253° West  Level Estimated
01:58AM 35.7647 140.3864 253° West  Level Estimated